Time;durP1;ratioP1;P1;durP2;ratioP2;P2;SDS_P1;SDS_P2;PMS_P1;PMS_P2;Temp;Humidity;BMP_temperature;BMP_pressure;BME280_temperature;BME280_humidity;BME280_pressure;Samples;Min_cycle;Max_cycle;Signal;HPM_P1;HPM_P2
2024/02/24 00:00:16;;;;;;;1.53;0.60;;;6.70;99.90;;;;;;4990981;28;20042;-53
2024/02/24 00:02:41;;;;;;;3.07;0.83;;;6.60;99.90;;;;;;4991125;28;20034;-50
2024/02/24 00:05:07;;;;;;;1.27;0.60;;;6.60;99.90;;;;;;4990994;28;20030;-54
2024/02/24 00:07:33;;;;;;;1.77;0.43;;;6.70;99.90;;;;;;4990885;28;20475;-53
2024/02/24 00:09:58;;;;;;;1.23;0.70;;;6.80;99.90;;;;;;4990846;28;20476;-54
2024/02/24 00:12:24;;;;;;;1.03;0.60;;;6.80;99.90;;;;;;4989560;28;20102;-54
2024/02/24 00:14:50;;;;;;;0.80;0.57;;;6.70;99.90;;;;;;4990957;28;20065;-53
2024/02/24 00:17:16;;;;;;;1.47;0.60;;;6.70;99.90;;;;;;4989656;28;20034;-54
2024/02/24 00:19:42;;;;;;;0.77;0.63;;;6.80;99.90;;;;;;4990707;28;20034;-52
2024/02/24 00:22:07;;;;;;;1.10;0.50;;;6.80;99.90;;;;;;4990853;28;20042;-54
2024/02/24 00:24:33;;;;;;;2.63;0.50;;;6.80;99.90;;;;;;4990715;28;20044;-51
2024/02/24 00:26:58;;;;;;;1.20;0.50;;;6.80;99.90;;;;;;4990864;28;20541;-55
2024/02/24 00:29:24;;;;;;;2.80;0.80;;;6.80;99.90;;;;;;4990101;28;20054;-54
2024/02/24 00:31:50;;;;;;;1.07;0.47;;;6.80;99.90;;;;;;4989962;28;20522;-54
2024/02/24 00:34:15;;;;;;;1.53;0.90;;;6.70;99.90;;;;;;4993803;28;20038;-51
2024/02/24 00:36:41;;;;;;;1.70;0.70;;;6.70;99.90;;;;;;4994270;28;20026;-55
2024/02/24 00:39:06;;;;;;;1.60;0.63;;;6.70;99.90;;;;;;4994109;28;20117;-53
2024/02/24 00:41:32;;;;;;;4.03;0.83;;;6.70;99.90;;;;;;4993910;28;20034;-55
2024/02/24 00:43:57;;;;;;;3.03;0.70;;;6.70;99.90;;;;;;4994069;28;20118;-53
2024/02/24 00:46:23;;;;;;;0.97;0.50;;;6.70;99.90;;;;;;4994010;28;20093;-50
2024/02/24 00:48:48;;;;;;;1.13;0.70;;;6.60;99.90;;;;;;4994082;28;20057;-54
2024/02/24 00:51:14;;;;;;;1.20;0.57;;;6.60;99.90;;;;;;4993650;28;20109;-55
2024/02/24 00:53:40;;;;;;;0.90;0.60;;;6.60;99.90;;;;;;4993821;28;20460;-54
2024/02/24 00:56:05;;;;;;;1.73;0.73;;;6.50;99.90;;;;;;4993980;28;20038;-52
2024/02/24 00:58:31;;;;;;;1.33;0.60;;;6.50;99.90;;;;;;4993901;28;20193;-55
2024/02/24 01:00:57;;;;;;;2.70;0.70;;;6.50;99.90;;;;;;4991848;28;20030;-55
2024/02/24 01:03:22;;;;;;;1.70;0.80;;;6.40;99.90;;;;;;4993662;28;20416;-54
2024/02/24 01:05:48;;;;;;;1.80;0.73;;;6.50;99.90;;;;;;4993612;28;20030;-54
2024/02/24 01:08:13;;;;;;;2.50;0.70;;;6.40;99.90;;;;;;4993303;28;20119;-54
2024/02/24 01:10:39;;;;;;;2.20;0.60;;;6.50;99.90;;;;;;4991502;28;20032;-55
2024/02/24 01:13:05;;;;;;;1.40;0.60;;;6.50;99.90;;;;;;4992127;28;20543;-52
2024/02/24 01:15:32;;;;;;;0.60;0.50;;;6.40;99.90;;;;;;4993365;28;20049;-55
2024/02/24 01:17:57;;;;;;;1.07;0.50;;;6.40;99.90;;;;;;4993589;28;20030;-54
2024/02/24 01:20:25;;;;;;;2.00;0.80;;;6.40;99.90;;;;;;4993153;28;20088;-54
2024/02/24 01:22:53;;;;;;;0.50;0.50;;;6.40;99.90;;;;;;4993326;28;20122;-54
2024/02/24 01:25:20;;;;;;;0.80;0.50;;;6.40;99.90;;;;;;4993356;28;20517;-54
2024/02/24 01:27:45;;;;;;;1.53;0.60;;;6.40;99.90;;;;;;4993282;28;20034;-54
2024/02/24 01:30:11;;;;;;;1.30;0.70;;;6.30;99.90;;;;;;4993095;28;20097;-54
2024/02/24 01:32:37;;;;;;;1.47;0.60;;;6.30;99.90;;;;;;4993056;28;20084;-52
2024/02/24 01:35:03;;;;;;;0.50;0.50;;;6.30;99.90;;;;;;4992875;28;20415;-53
2024/02/24 01:37:28;;;;;;;1.27;0.77;;;6.20;99.90;;;;;;4992798;28;20114;-54
2024/02/24 01:39:54;;;;;;;2.00;0.70;;;6.10;99.90;;;;;;4993294;28;20027;-50
2024/02/24 01:42:20;;;;;;;3.13;0.70;;;6.20;99.90;;;;;;4992884;28;20121;-50
2024/02/24 01:44:45;;;;;;;1.33;0.70;;;6.10;99.90;;;;;;4992435;28;20070;-55
2024/02/24 01:47:11;;;;;;;1.23;0.77;;;6.00;99.90;;;;;;4992746;28;20061;-54
2024/02/24 01:49:38;;;;;;;2.27;0.80;;;6.00;99.90;;;;;;4992503;28;20073;-54
2024/02/24 01:52:05;;;;;;;1.43;0.80;;;6.00;99.90;;;;;;4992920;28;20049;-53
2024/02/24 01:54:34;;;;;;;1.47;0.80;;;5.90;99.90;;;;;;4992865;28;20043;-55
2024/02/24 01:57:01;;;;;;;1.95;0.70;;;5.90;99.90;;;;;;4991465;28;20027;-52
2024/02/24 01:59:27;;;;;;;2.00;0.70;;;5.80;99.90;;;;;;4992520;28;20026;-54
2024/02/24 02:01:53;;;;;;;2.70;0.77;;;5.80;99.90;;;;;;4992709;28;20121;-54
2024/02/24 02:04:19;;;;;;;2.87;0.63;;;5.80;99.90;;;;;;4992691;28;20063;-54
2024/02/24 02:06:45;;;;;;;1.13;0.70;;;5.80;99.90;;;;;;4992758;28;20214;-49
2024/02/24 02:09:10;;;;;;;1.87;0.73;;;5.90;99.90;;;;;;4992478;28;20041;-55
2024/02/24 02:11:36;;;;;;;2.47;0.70;;;5.90;99.90;;;;;;4992343;28;20023;-53
2024/02/24 02:14:02;;;;;;;1.90;0.43;;;5.90;99.90;;;;;;4992406;28;20034;-53
2024/02/24 02:16:27;;;;;;;0.67;0.53;;;5.90;99.90;;;;;;4992339;28;20035;-53
2024/02/24 02:18:54;;;;;;;1.70;0.63;;;5.90;99.90;;;;;;4992107;28;20132;-54
2024/02/24 02:21:20;;;;;;;1.93;0.80;;;5.90;99.90;;;;;;4991921;28;20471;-51
2024/02/24 02:23:46;;;;;;;2.07;0.73;;;5.90;99.90;;;;;;4992345;28;20054;-52
2024/02/24 02:26:13;;;;;;;1.63;0.57;;;5.90;99.90;;;;;;4992451;28;20450;-55
2024/02/24 02:28:39;;;;;;;1.33;0.90;;;6.00;99.90;;;;;;4992186;28;20109;-54
2024/02/24 02:31:05;;;;;;;1.67;0.90;;;6.00;99.90;;;;;;4991956;28;20034;-54
2024/02/24 02:33:30;;;;;;;3.40;1.00;;;5.90;99.90;;;;;;4991999;28;20110;-55
2024/02/24 02:35:56;;;;;;;1.97;0.87;;;5.90;99.90;;;;;;4991913;28;20510;-53
2024/02/24 02:38:21;;;;;;;4.07;0.83;;;5.90;99.90;;;;;;4991964;28;20125;-55
2024/02/24 02:40:47;;;;;;;2.43;0.97;;;6.00;99.90;;;;;;4991800;28;20517;-55
2024/02/24 02:43:13;;;;;;;1.57;0.73;;;6.00;99.90;;;;;;4991894;28;20066;-54
2024/02/24 02:45:38;;;;;;;1.80;0.83;;;5.90;99.90;;;;;;4991747;28;20081;-54
2024/02/24 02:48:04;;;;;;;2.47;0.77;;;5.90;99.90;;;;;;4991759;28;20038;-55
2024/02/24 02:50:30;;;;;;;2.77;0.80;;;5.90;99.90;;;;;;4991623;28;20034;-55
2024/02/24 02:52:55;;;;;;;1.10;0.70;;;5.90;99.90;;;;;;4991867;28;20036;-55
2024/02/24 02:55:21;;;;;;;3.10;0.83;;;5.90;99.90;;;;;;4991348;28;20049;-53
2024/02/24 02:57:48;;;;;;;1.87;0.90;;;5.90;99.90;;;;;;4991970;28;20092;-54
2024/02/24 03:00:14;;;;;;;1.13;0.70;;;5.90;99.90;;;;;;4991867;28;20034;-54
2024/02/24 03:02:40;;;;;;;0.83;0.50;;;5.90;99.90;;;;;;4991872;28;20036;-55
2024/02/24 03:05:06;;;;;;;1.37;0.70;;;5.90;99.90;;;;;;4991801;28;20117;-54
2024/02/24 03:07:31;;;;;;;3.47;1.00;;;5.90;99.90;;;;;;4991671;28;20037;-54
2024/02/24 03:09:57;;;;;;;2.27;0.90;;;5.90;99.90;;;;;;4991445;28;20035;-54
2024/02/24 03:12:22;;;;;;;1.40;0.70;;;5.90;99.90;;;;;;4991643;28;20110;-54
2024/02/24 03:14:48;;;;;;;1.47;0.70;;;5.90;99.90;;;;;;4989906;28;20080;-52
2024/02/24 03:17:14;;;;;;;1.73;0.63;;;5.90;99.90;;;;;;4991256;28;20117;-54
2024/02/24 03:19:40;;;;;;;1.97;0.70;;;5.90;99.90;;;;;;4991164;28;20034;-54
2024/02/24 03:22:06;;;;;;;1.37;0.83;;;5.80;99.90;;;;;;4991297;28;20053;-54
2024/02/24 03:24:31;;;;;;;1.23;0.70;;;5.90;99.90;;;;;;4991415;28;20042;-54
2024/02/24 03:26:57;;;;;;;1.70;0.83;;;5.80;99.90;;;;;;4991623;28;20034;-50
2024/02/24 03:29:23;;;;;;;1.10;0.67;;;5.80;99.90;;;;;;4991414;28;20109;-54
2024/02/24 03:31:48;;;;;;;1.70;0.80;;;5.80;99.90;;;;;;4991050;28;20557;-53
2024/02/24 03:34:14;;;;;;;1.43;0.77;;;5.80;99.90;;;;;;4991255;28;20038;-54
2024/02/24 03:36:40;;;;;;;0.80;0.50;;;5.80;99.90;;;;;;4991086;28;20030;-55
2024/02/24 03:39:06;;;;;;;0.93;0.60;;;5.80;99.90;;;;;;4991145;28;20109;-50
2024/02/24 03:41:32;;;;;;;2.60;0.60;;;5.80;99.90;;;;;;4990912;28;20075;-52
2024/02/24 03:43:58;;;;;;;1.80;0.93;;;5.70;99.90;;;;;;4991005;28;20072;-50
2024/02/24 03:46:24;;;;;;;3.03;0.93;;;5.70;99.90;;;;;;4991408;28;20034;-51
2024/02/24 03:48:50;;;;;;;1.13;0.63;;;5.70;99.90;;;;;;4991229;28;20063;-54
2024/02/24 03:51:16;;;;;;;3.30;0.60;;;5.70;99.90;;;;;;4990995;28;20066;-54
2024/02/24 03:53:42;;;;;;;1.00;0.50;;;5.70;99.90;;;;;;4990993;28;20117;-55
2024/02/24 03:56:07;;;;;;;2.33;0.70;;;5.80;99.90;;;;;;4991082;28;20114;-54
2024/02/24 03:58:33;;;;;;;1.13;0.70;;;5.80;99.90;;;;;;4991178;28;20118;-55
2024/02/24 04:00:58;;;;;;;1.27;0.77;;;5.80;99.90;;;;;;4990706;28;20135;-54
2024/02/24 04:03:24;;;;;;;1.03;0.60;;;5.80;99.90;;;;;;4991041;28;20113;-55
2024/02/24 04:05:50;;;;;;;0.60;0.50;;;5.90;99.90;;;;;;4991129;28;20034;-55
2024/02/24 04:08:15;;;;;;;3.03;0.70;;;5.90;99.90;;;;;;4994813;28;20069;-54
2024/02/24 04:10:45;;;;;;;0.57;0.50;;;5.90;99.90;;;;;;4994708;28;20368;-50
2024/02/24 04:13:10;;;;;;;0.65;0.43;;;5.90;99.90;;;;;;4994294;28;20065;-50
2024/02/24 04:15:36;;;;;;;1.67;0.70;;;5.90;99.90;;;;;;4994865;28;20031;-53
2024/02/24 04:18:03;;;;;;;1.23;0.60;;;5.90;99.90;;;;;;4994621;28;20065;-55
2024/02/24 04:20:29;;;;;;;1.67;0.60;;;5.90;99.90;;;;;;4994512;28;20117;-53
2024/02/24 04:22:54;;;;;;;2.17;0.60;;;5.90;99.90;;;;;;4994570;28;20113;-53
2024/02/24 04:25:20;;;;;;;1.10;0.70;;;5.90;99.90;;;;;;4994373;28;20034;-55
2024/02/24 04:27:45;;;;;;;1.27;0.60;;;6.00;99.90;;;;;;4994418;28;20121;-55
2024/02/24 04:30:11;;;;;;;1.10;0.47;;;5.90;99.90;;;;;;4994289;28;20094;-55
2024/02/24 04:32:37;;;;;;;1.00;0.63;;;5.90;99.90;;;;;;4994470;28;20030;-55
2024/02/24 04:35:03;;;;;;;1.10;0.60;;;5.90;99.90;;;;;;4993725;28;20022;-50
2024/02/24 04:37:29;;;;;;;0.87;0.53;;;5.90;99.90;;;;;;4993597;28;20030;-54
2024/02/24 04:39:55;;;;;;;1.33;0.60;;;5.90;99.90;;;;;;4994218;28;20077;-50
2024/02/24 04:42:20;;;;;;;0.87;0.60;;;5.90;99.90;;;;;;4994593;28;20177;-55
2024/02/24 04:44:49;;;;;;;0.73;0.50;;;5.90;99.90;;;;;;4994091;28;20042;-54
2024/02/24 04:47:15;;;;;;;1.87;0.67;;;5.80;99.90;;;;;;4994277;28;20124;-55
2024/02/24 04:49:41;;;;;;;1.93;0.73;;;5.90;99.90;;;;;;4994000;28;20522;-55
2024/02/24 04:52:07;;;;;;;0.70;0.50;;;6.00;99.90;;;;;;4994081;28;20061;-54
2024/02/24 04:54:32;;;;;;;1.13;0.67;;;5.90;99.90;;;;;;4994113;28;20026;-55
2024/02/24 04:56:58;;;;;;;1.80;0.70;;;5.90;99.90;;;;;;4994015;28;20121;-55
2024/02/24 04:59:23;;;;;;;1.00;0.60;;;5.90;99.90;;;;;;4993952;28;20057;-55
2024/02/24 05:01:49;;;;;;;3.53;0.80;;;5.90;99.90;;;;;;4993914;28;20446;-54
2024/02/24 05:04:15;;;;;;;1.40;0.63;;;5.90;99.90;;;;;;4993879;28;20323;-55
2024/02/24 05:06:40;;;;;;;1.67;0.60;;;5.90;99.90;;;;;;4992340;28;20399;-55
2024/02/24 05:09:08;;;;;;;1.27;0.70;;;5.80;99.90;;;;;;4994009;28;20069;-53
2024/02/24 05:11:34;;;;;;;1.00;0.70;;;5.90;99.90;;;;;;4993288;28;20049;-54
2024/02/24 05:13:59;;;;;;;0.47;0.40;;;5.80;99.90;;;;;;4992168;28;20034;-54
2024/02/24 05:16:25;;;;;;;1.73;0.60;;;5.80;99.90;;;;;;4993607;28;20022;-53
2024/02/24 05:18:50;;;;;;;1.60;0.70;;;5.80;99.90;;;;;;4992957;28;20475;-54
2024/02/24 05:21:21;;;;;;;1.87;0.70;;;5.80;99.90;;;;;;4993411;28;20030;-53
2024/02/24 05:23:46;;;;;;;1.20;0.60;;;5.80;99.90;;;;;;4993361;28;20446;-54
2024/02/24 05:26:25;;;;;;;1.87;0.63;;;5.80;99.90;;;;;;4993639;28;20038;-52
2024/02/24 05:28:51;;;;;;;0.60;0.40;;;5.80;99.90;;;;;;4993490;28;20038;-50
2024/02/24 05:31:17;;;;;;;2.43;0.43;;;5.80;99.90;;;;;;4993148;28;20484;-55
2024/02/24 05:33:43;;;;;;;1.60;0.60;;;5.70;99.90;;;;;;4993273;28;20045;-54
2024/02/24 05:36:08;;;;;;;2.60;0.70;;;5.70;99.90;;;;;;4993224;28;20575;-54
2024/02/24 05:38:34;;;;;;;0.87;0.57;;;5.70;99.90;;;;;;4993334;28;20030;-51
2024/02/24 05:41:01;;;;;;;0.80;0.50;;;5.70;99.90;;;;;;4992723;28;20080;-54
2024/02/24 05:43:27;;;;;;;2.60;0.80;;;5.60;99.90;;;;;;4993136;28;20076;-51
2024/02/24 05:45:56;;;;;;;1.40;0.73;;;5.70;99.90;;;;;;4993222;28;20078;-53
2024/02/24 05:48:22;;;;;;;1.85;0.73;;;5.70;99.90;;;;;;4993059;28;20030;-54
2024/02/24 05:50:51;;;;;;;2.83;0.67;;;5.70;99.90;;;;;;4992838;28;20073;-51
2024/02/24 05:53:16;;;;;;;0.95;0.50;;;5.70;99.90;;;;;;4993065;28;20475;-49
2024/02/24 05:55:43;;;;;;;1.37;0.80;;;5.70;99.90;;;;;;4992786;28;20073;-50
2024/02/24 05:58:09;;;;;;;1.00;0.50;;;5.60;99.90;;;;;;4992943;28;20034;-50
2024/02/24 06:00:35;;;;;;;2.73;0.50;;;5.60;99.90;;;;;;4993024;28;20117;-49
2024/02/24 06:03:00;;;;;;;1.50;0.57;;;5.60;99.90;;;;;;4992964;28;20030;-53
2024/02/24 06:05:26;;;;;;;0.83;0.57;;;5.60;99.90;;;;;;4992865;28;20030;-53
2024/02/24 06:07:52;;;;;;;1.03;0.60;;;5.60;99.90;;;;;;4991421;28;20045;-53
2024/02/24 06:10:18;;;;;;;2.13;0.80;;;5.60;99.90;;;;;;4992207;28;20042;-54
2024/02/24 06:12:44;;;;;;;1.27;0.67;;;5.60;99.90;;;;;;4991946;28;20037;-55
2024/02/24 06:15:12;;;;;;;3.07;0.70;;;5.60;99.90;;;;;;4992273;28;20030;-50
2024/02/24 06:17:38;;;;;;;1.10;0.70;;;5.60;99.90;;;;;;4992433;28;20082;-55
2024/02/24 06:20:04;;;;;;;1.03;0.50;;;5.60;99.90;;;;;;4991836;28;20476;-53
2024/02/24 06:22:30;;;;;;;2.23;0.70;;;5.60;99.90;;;;;;4986203;28;20042;-55
2024/02/24 06:24:56;;;;;;;1.20;0.60;;;5.60;99.90;;;;;;4982973;28;20027;-55
2024/02/24 06:27:21;;;;;;;0.83;0.50;;;5.60;99.90;;;;;;4981778;28;20101;-53
2024/02/24 06:29:47;;;;;;;0.50;0.50;;;5.60;99.90;;;;;;4979867;28;20018;-55
2024/02/24 06:32:12;;;;;;;2.03;0.77;;;5.60;99.90;;;;;;4980013;28;20126;-54
2024/02/24 06:34:42;;;;;;;1.60;0.87;;;5.60;99.90;;;;;;4972167;28;20049;-55
2024/02/24 06:37:08;;;;;;;1.10;0.70;;;5.60;99.90;;;;;;4990601;28;20091;-55
2024/02/24 06:39:34;;;;;;;1.60;0.70;;;5.70;99.90;;;;;;4991631;28;20026;-55
2024/02/24 06:42:00;;;;;;;1.43;0.60;;;5.70;99.90;;;;;;4991926;28;20034;-55
2024/02/24 06:44:25;;;;;;;1.00;0.53;;;5.60;99.90;;;;;;4991436;28;20053;-55
2024/02/24 06:46:51;;;;;;;1.57;0.73;;;5.70;99.90;;;;;;4991422;28;20072;-55
2024/02/24 06:49:17;;;;;;;1.40;0.60;;;5.70;99.90;;;;;;4988906;28;20027;-55
2024/02/24 06:51:42;;;;;;;2.70;2.50;;;5.60;99.90;;;;;;4981088;28;20493;-53
2024/02/24 06:54:08;;;;;;;2.10;0.53;;;5.70;99.90;;;;;;4981249;28;20041;-52
2024/02/24 06:56:34;;;;;;;1.73;0.50;;;5.60;99.90;;;;;;4981284;28;20036;-55
2024/02/24 06:59:04;;;;;;;1.23;0.53;;;5.70;99.90;;;;;;4983005;28;20035;-54
2024/02/24 07:01:29;;;;;;;1.17;0.67;;;5.70;99.90;;;;;;4972082;28;20035;-53
2024/02/24 07:03:55;;;;;;;1.43;0.60;;;5.70;99.90;;;;;;4980562;28;20022;-55
2024/02/24 07:06:20;;;;;;;1.20;0.70;;;5.70;99.90;;;;;;4979952;28;20386;-53
2024/02/24 07:08:46;;;;;;;1.47;0.63;;;5.80;99.90;;;;;;4983483;28;20030;-51
2024/02/24 07:11:12;;;;;;;1.67;0.70;;;5.70;99.90;;;;;;4981116;28;20531;-54
2024/02/24 07:13:38;;;;;;;1.20;0.70;;;5.80;99.90;;;;;;4981461;28;20022;-55
2024/02/24 07:16:04;;;;;;;3.17;0.70;;;5.90;99.90;;;;;;4982167;28;20022;-56
2024/02/24 07:18:30;;;;;;;2.53;1.17;;;5.90;99.90;;;;;;4981723;28;20023;-54
2024/02/24 07:20:55;;;;;;;1.33;0.80;;;6.00;99.90;;;;;;4982075;28;20049;-56
2024/02/24 07:23:21;;;;;;;1.80;0.60;;;6.00;99.90;;;;;;4979872;28;20039;-51
2024/02/24 07:25:46;;;;;;;1.03;0.70;;;6.00;99.90;;;;;;4980641;28;20031;-54
2024/02/24 07:28:12;;;;;;;2.10;0.70;;;6.00;99.90;;;;;;4979938;28;20034;-50
2024/02/24 07:30:37;;;;;;;3.13;0.90;;;6.00;99.90;;;;;;4977316;28;20035;-52
2024/02/24 07:33:03;;;;;;;2.20;0.60;;;6.00;99.90;;;;;;4982067;28;20404;-55
2024/02/24 07:35:29;;;;;;;2.13;0.73;;;6.00;99.90;;;;;;4975698;28;20039;-49
2024/02/24 07:37:55;;;;;;;1.27;0.67;;;6.00;99.90;;;;;;4980826;28;20050;-50
2024/02/24 07:40:20;;;;;;;1.30;0.80;;;6.10;99.90;;;;;;4982051;28;20026;-54
2024/02/24 07:42:49;;;;;;;2.53;0.80;;;6.10;99.90;;;;;;4986599;28;20018;-55
2024/02/24 07:45:15;;;;;;;1.50;0.70;;;6.10;99.90;;;;;;4989899;28;20038;-55
2024/02/24 07:47:41;;;;;;;1.53;0.70;;;6.10;99.90;;;;;;4980226;28;20113;-55
2024/02/24 07:50:07;;;;;;;1.83;0.87;;;6.10;99.90;;;;;;4979802;28;20098;-55
2024/02/24 07:52:32;;;;;;;0.83;0.60;;;6.20;99.90;;;;;;4980356;28;20065;-54
2024/02/24 07:54:58;;;;;;;3.57;0.60;;;6.20;99.90;;;;;;4979461;28;20427;-54
2024/02/24 07:57:24;;;;;;;1.00;0.60;;;6.10;99.90;;;;;;4982520;28;20061;-55
2024/02/24 07:59:49;;;;;;;0.83;0.60;;;6.20;99.90;;;;;;4989348;28;20030;-55
2024/02/24 08:02:15;;;;;;;6.43;2.70;;;6.20;99.90;;;;;;4976356;28;20062;-53
2024/02/24 08:04:40;;;;;;;5.07;1.60;;;6.10;99.90;;;;;;4975116;28;20485;-55
2024/02/24 08:07:06;;;;;;;2.23;0.80;;;6.20;99.90;;;;;;4975621;28;20041;-55
2024/02/24 08:09:31;;;;;;;1.03;0.60;;;6.30;99.90;;;;;;4975382;28;20121;-55
2024/02/24 08:11:59;;;;;;;2.33;1.00;;;6.30;99.90;;;;;;4974946;28;20377;-56
2024/02/24 08:14:25;;;;;;;2.53;0.70;;;6.40;99.90;;;;;;4975509;28;20023;-54
2024/02/24 08:16:50;;;;;;;1.80;0.90;;;6.40;99.90;;;;;;4975120;28;20350;-56
2024/02/24 08:19:16;;;;;;;1.63;0.73;;;6.50;99.90;;;;;;4975240;28;20026;-52
2024/02/24 08:21:41;;;;;;;1.50;0.80;;;6.50;99.90;;;;;;4974861;28;20468;-56
2024/02/24 08:24:07;;;;;;;2.17;0.90;;;6.50;99.90;;;;;;4975186;28;20488;-53
2024/02/24 08:26:39;;;;;;;4.70;0.90;;;6.50;99.90;;;;;;4975220;28;20124;-55
2024/02/24 08:29:05;;;;;;;1.60;0.90;;;6.40;99.90;;;;;;4973806;28;20113;-55
2024/02/24 08:31:33;;;;;;;2.73;1.10;;;6.40;99.90;;;;;;4973303;28;20317;-55
2024/02/24 08:33:58;;;;;;;1.57;0.70;;;6.40;99.90;;;;;;4975219;28;20418;-56
2024/02/24 08:36:24;;;;;;;1.27;0.70;;;6.30;99.90;;;;;;4975025;28;20122;-53
2024/02/24 08:38:49;;;;;;;2.20;0.60;;;6.40;99.90;;;;;;4975015;28;20116;-53
2024/02/24 08:41:15;;;;;;;2.30;0.70;;;6.30;99.90;;;;;;4975126;28;20046;-55
2024/02/24 08:43:40;;;;;;;3.00;1.00;;;6.30;99.90;;;;;;4974950;28;20387;-52
2024/02/24 08:46:06;;;;;;;2.20;0.90;;;6.30;99.90;;;;;;4974743;28;20046;-53
2024/02/24 08:48:32;;;;;;;2.63;0.97;;;6.30;99.90;;;;;;4973259;28;20531;-55
2024/02/24 08:50:57;;;;;;;1.47;0.67;;;6.30;99.90;;;;;;4972793;28;20042;-51
2024/02/24 08:53:23;;;;;;;4.50;1.10;;;6.20;99.90;;;;;;4973500;28;20066;-54
2024/02/24 08:55:49;;;;;;;1.50;0.80;;;6.10;99.90;;;;;;4974385;28;20030;-53
2024/02/24 08:58:14;;;;;;;1.90;0.80;;;6.00;99.90;;;;;;4974190;28;20130;-54
2024/02/24 09:00:40;;;;;;;1.63;0.63;;;5.90;99.90;;;;;;4974119;28;20420;-54
2024/02/24 09:03:06;;;;;;;1.47;0.67;;;5.90;99.90;;;;;;4974099;28;20035;-54
2024/02/24 09:05:31;;;;;;;1.80;0.70;;;5.90;99.90;;;;;;4974197;28;20484;-54
2024/02/24 09:07:57;;;;;;;1.37;0.60;;;5.80;99.90;;;;;;4974097;28;20097;-50
2024/02/24 09:10:22;;;;;;;1.80;0.63;;;5.70;99.90;;;;;;4973917;28;20053;-54
2024/02/24 09:12:48;;;;;;;2.03;0.70;;;5.60;99.90;;;;;;4974125;28;20023;-55
2024/02/24 09:15:14;;;;;;;4.07;0.70;;;5.50;99.90;;;;;;4973937;28;20027;-52
2024/02/24 09:17:39;;;;;;;0.83;0.50;;;5.40;99.90;;;;;;4973792;28;20508;-54
2024/02/24 09:20:08;;;;;;;2.63;0.80;;;5.40;99.90;;;;;;4974072;28;20070;-51
2024/02/24 09:22:34;;;;;;;1.25;0.70;;;5.40;99.90;;;;;;4973865;28;20042;-55
2024/02/24 09:24:59;;;;;;;1.47;0.70;;;5.30;99.90;;;;;;4973680;28;20073;-51
2024/02/24 09:27:25;;;;;;;1.83;0.60;;;5.30;99.90;;;;;;4984985;28;20050;-51
2024/02/24 09:29:50;;;;;;;2.73;0.70;;;5.30;99.90;;;;;;4993218;28;20042;-55
2024/02/24 09:32:17;;;;;;;1.33;0.50;;;5.30;99.90;;;;;;4991668;28;20035;-51
2024/02/24 09:34:44;;;;;;;1.20;0.73;;;5.30;99.90;;;;;;4993065;28;20064;-53
2024/02/24 09:37:10;;;;;;;1.40;0.60;;;5.30;99.90;;;;;;4993148;28;20050;-54
2024/02/24 09:39:41;;;;;;;1.50;0.60;;;5.30;99.90;;;;;;4992990;28;20028;-51
2024/02/24 09:42:09;;;;;;;0.80;0.60;;;5.30;99.90;;;;;;4991604;28;20077;-55
2024/02/24 09:44:35;;;;;;;1.57;0.40;;;5.30;99.90;;;;;;4992681;28;20424;-52
2024/02/24 09:47:02;;;;;;;1.07;0.43;;;5.30;99.90;;;;;;4993017;28;20149;-55
2024/02/24 09:49:30;;;;;;;0.93;0.60;;;5.30;99.90;;;;;;4992986;28;20086;-54
2024/02/24 09:51:58;;;;;;;1.03;0.50;;;5.30;99.90;;;;;;4992673;28;20080;-51
2024/02/24 09:54:24;;;;;;;0.80;0.33;;;5.40;99.90;;;;;;4993040;28;20484;-52
2024/02/24 09:56:52;;;;;;;0.87;0.47;;;5.40;99.90;;;;;;4992932;28;20119;-53
2024/02/24 09:59:20;;;;;;;3.13;0.87;;;5.40;99.90;;;;;;4992499;28;20058;-51
2024/02/24 10:01:48;;;;;;;1.57;0.67;;;5.40;99.90;;;;;;4991270;28;20486;-51
2024/02/24 10:04:15;;;;;;;0.70;0.50;;;5.60;99.90;;;;;;4993168;28;20482;-56
2024/02/24 10:06:43;;;;;;;4.70;0.77;;;5.70;99.90;;;;;;4992542;28;20450;-56
2024/02/24 10:09:11;;;;;;;1.52;1.20;;;5.90;99.90;;;;;;4992763;28;20045;-55
2024/02/24 10:11:38;;;;;;;2.93;1.17;;;5.90;99.90;;;;;;4990705;28;20394;-56
2024/02/24 10:14:07;;;;;;;3.47;1.83;;;5.80;99.90;;;;;;4992614;28;20030;-55
2024/02/24 10:16:39;;;;;;;2.13;1.10;;;5.80;99.90;;;;;;4992347;28;20027;-55
2024/02/24 10:19:06;;;;;;;1.67;0.80;;;5.80;99.90;;;;;;4992632;28;20034;-52
2024/02/24 10:21:32;;;;;;;2.00;1.00;;;5.70;99.90;;;;;;4992612;28;20054;-56
2024/02/24 10:23:58;;;;;;;0.90;0.60;;;5.70;99.90;;;;;;4992761;28;20030;-52
2024/02/24 10:26:24;;;;;;;3.97;0.80;;;5.90;99.90;;;;;;4992229;28;20038;-55
2024/02/24 10:28:50;;;;;;;1.20;0.73;;;6.30;99.90;;;;;;4992159;28;20729;-56
2024/02/24 10:31:16;;;;;;;1.57;0.70;;;6.70;99.90;;;;;;4990602;28;20038;-56
2024/02/24 10:33:42;;;;;;;0.90;0.70;;;7.00;99.90;;;;;;4991996;28;20197;-55
2024/02/24 10:36:09;;;;;;;1.30;0.83;;;7.20;99.90;;;;;;4991814;28;20196;-56
2024/02/24 10:38:38;;;;;;;2.20;1.13;;;7.40;99.90;;;;;;4991972;28;20161;-56
2024/02/24 10:41:06;;;;;;;4.18;1.40;;;7.70;99.90;;;;;;4991632;28;20040;-54
2024/02/24 10:43:33;;;;;;;3.60;1.30;;;7.90;99.90;;;;;;4991840;28;20026;-53
2024/02/24 10:45:59;;;;;;;6.50;2.60;;;7.80;99.90;;;;;;4991745;28;20031;-52
2024/02/24 10:48:25;;;;;;;3.10;1.40;;;7.90;99.90;;;;;;4991614;28;20701;-54
2024/02/24 10:50:50;;;;;;;1.77;1.10;;;7.90;99.90;;;;;;4991472;28;20065;-53
2024/02/24 10:53:20;;;;;;;3.13;1.50;;;8.20;99.90;;;;;;4991735;28;20034;-52
2024/02/24 10:55:48;;;;;;;2.07;1.00;;;8.50;99.90;;;;;;4991523;28;20113;-50
2024/02/24 10:58:21;;;;;;;1.73;0.70;;;8.80;99.90;;;;;;4991540;28;20043;-52
2024/02/24 11:00:50;;;;;;;4.33;1.37;;;9.00;99.90;;;;;;4991444;28;20066;-51
2024/02/24 11:03:19;;;;;;;2.30;0.90;;;9.50;99.90;;;;;;4991323;28;20061;-53
2024/02/24 11:05:50;;;;;;;1.60;0.80;;;10.50;99.90;;;;;;4991358;28;20122;-56
2024/02/24 11:08:34;;;;;;;2.20;0.70;;;11.60;99.90;;;;;;4991178;28;20456;-52
2024/02/24 11:11:10;;;;;;;2.05;0.70;;;11.80;99.90;;;;;;4991110;28;20137;-55
2024/02/24 11:13:36;;;;;;;1.17;0.77;;;11.90;99.90;;;;;;4991104;28;20034;-51
2024/02/24 11:16:05;;;;;;;1.33;0.50;;;11.20;99.90;;;;;;4990962;28;20128;-51
2024/02/24 11:18:48;;;;;;;2.03;0.55;;;10.80;99.90;;;;;;4991152;28;20096;-51
2024/02/24 11:21:15;;;;;;;0.97;0.50;;;10.40;99.90;;;;;;4989839;28;20030;-50
2024/02/24 11:23:44;;;;;;;2.57;0.60;;;10.10;99.90;;;;;;4991335;28;20110;-57
2024/02/24 11:26:13;;;;;;;1.13;0.30;;;9.70;99.90;;;;;;4986431;28;20038;-55
2024/02/24 11:28:39;;;;;;;2.25;0.68;;;9.30;99.90;;;;;;4989766;28;20371;-57
2024/02/24 11:31:05;;;;;;;1.40;0.50;;;9.00;99.90;;;;;;4987580;28;20042;-56
2024/02/24 11:33:39;;;;;;;0.70;0.43;;;8.80;99.90;;;;;;4988423;28;20045;-57
2024/02/24 11:36:06;;;;;;;1.27;0.63;;;8.60;99.90;;;;;;4990186;28;20472;-56
2024/02/24 11:38:32;;;;;;;1.40;0.60;;;8.50;99.90;;;;;;4990465;28;20089;-57
2024/02/24 11:41:05;;;;;;;2.00;0.40;;;8.20;99.90;;;;;;4990107;28;20498;-57
2024/02/24 11:43:31;;;;;;;0.70;0.30;;;8.20;99.90;;;;;;4990361;28;20558;-57
2024/02/24 11:45:57;;;;;;;0.83;0.40;;;8.10;99.90;;;;;;4990748;28;20542;-54
2024/02/24 11:48:23;;;;;;;0.67;0.20;;;8.00;99.90;;;;;;4990797;28;20122;-57
2024/02/24 11:50:49;;;;;;;1.13;0.40;;;8.10;99.90;;;;;;4990418;28;20141;-56
2024/02/24 11:53:18;;;;;;;1.37;0.50;;;8.10;99.90;;;;;;4988919;28;20031;-53
2024/02/24 11:55:45;;;;;;;2.90;0.60;;;8.00;99.90;;;;;;4991004;28;20026;-55
2024/02/24 11:58:12;;;;;;;2.67;0.37;;;8.00;99.90;;;;;;4988996;28;20110;-53
2024/02/24 12:00:40;;;;;;;0.53;0.30;;;8.20;99.90;;;;;;4990313;28;20042;-56
2024/02/24 12:03:10;;;;;;;1.10;0.40;;;8.10;99.90;;;;;;4990655;28;20141;-53
2024/02/24 12:05:36;;;;;;;1.73;0.43;;;8.10;99.90;;;;;;4989694;28;20104;-53
2024/02/24 12:08:04;;;;;;;1.03;0.43;;;8.30;99.90;;;;;;4990179;28;20034;-54
2024/02/24 12:10:36;;;;;;;2.22;0.47;;;8.30;99.90;;;;;;4990090;28;20030;-55
2024/02/24 12:13:15;;;;;;;0.97;0.37;;;8.40;99.90;;;;;;4988883;28;20073;-55
2024/02/24 12:15:45;;;;;;;;;;;8.30;99.90;;;;;;4990574;28;20045;-54
2024/02/24 12:18:11;;;;;;;1.30;0.33;;;8.20;99.90;;;;;;4990324;28;20362;-53
2024/02/24 12:20:38;;;;;;;2.93;0.40;;;8.10;99.90;;;;;;4990220;28;20141;-53
2024/02/24 12:23:04;;;;;;;2.63;0.40;;;8.00;99.90;;;;;;4990250;28;20038;-55
2024/02/24 12:25:31;;;;;;;1.20;0.43;;;7.90;99.90;;;;;;4990377;28;20050;-58
2024/02/24 12:27:56;;;;;;;1.40;0.47;;;7.90;99.90;;;;;;4990071;28;20046;-53
2024/02/24 12:30:23;;;;;;;1.57;0.40;;;7.70;99.90;;;;;;4993912;28;20042;-53
2024/02/24 12:32:48;;;;;;;1.00;0.30;;;7.60;99.90;;;;;;4993930;28;20430;-53
2024/02/24 12:35:15;;;;;;;1.77;0.40;;;7.60;99.90;;;;;;4988183;28;20105;-52
2024/02/24 12:37:43;;;;;;;0.93;0.30;;;7.60;99.90;;;;;;4985781;28;20019;-54
2024/02/24 12:40:32;;;;;;;1.10;0.50;;;7.70;99.90;;;;;;4993561;28;20318;-56
2024/02/24 12:42:58;;;;;;;1.33;0.30;;;7.70;99.90;;;;;;4993719;28;20034;-54
2024/02/24 12:45:24;;;;;;;2.23;0.60;;;7.80;99.90;;;;;;4993489;28;20149;-53
2024/02/24 12:47:50;;;;;;;1.13;0.60;;;8.00;99.90;;;;;;4993773;28;20077;-53
2024/02/24 12:50:24;;;;;;;1.60;0.40;;;8.20;99.90;;;;;;4993022;28;20038;-53
2024/02/24 12:52:51;;;;;;;1.73;0.30;;;8.50;99.90;;;;;;4992234;28;20062;-53